createdAt,value
2022-08-03T00:00:29.476Z,99.90
2022-08-03T00:02:56.494Z,99.90
2022-08-03T00:05:23.307Z,99.90
2022-08-03T00:07:50.129Z,99.90
2022-08-03T00:10:17.301Z,99.90
2022-08-03T00:12:44.253Z,99.90
2022-08-03T00:15:16.692Z,99.90
2022-08-03T00:17:53.644Z,99.90
2022-08-03T00:20:24.840Z,99.90
2022-08-03T00:22:51.821Z,99.90
2022-08-03T00:25:19.408Z,99.90
2022-08-03T00:27:46.230Z,99.90
2022-08-03T00:30:15.421Z,99.90
2022-08-03T00:32:45.088Z,99.90
2022-08-03T00:35:32.562Z,99.90
2022-08-03T00:38:00.155Z,99.90
2022-08-03T00:40:27.495Z,99.90
2022-08-03T00:42:57.028Z,99.90
2022-08-03T00:45:28.977Z,99.90
2022-08-03T00:47:56.839Z,99.90
2022-08-03T00:50:26.085Z,99.90
2022-08-03T00:52:55.396Z,99.90
2022-08-03T00:55:22.848Z,99.90
2022-08-03T00:57:49.852Z,99.90
2022-08-03T01:00:19.627Z,99.90
2022-08-03T01:02:47.548Z,99.90
2022-08-03T01:05:14.759Z,99.90
2022-08-03T01:07:50.800Z,99.90
2022-08-03T01:10:46.334Z,99.90
2022-08-03T01:13:59.210Z,99.90
2022-08-03T01:16:27.935Z,99.90
2022-08-03T01:19:12.789Z,99.90
2022-08-03T01:21:59.604Z,99.90
2022-08-03T01:25:02.992Z,99.90
2022-08-03T01:27:38.114Z,99.90
2022-08-03T01:30:11.948Z,99.90
2022-08-03T01:33:01.880Z,99.90
2022-08-03T01:35:47.651Z,99.90
2022-08-03T01:38:21.940Z,99.90
2022-08-03T01:40:51.776Z,99.90
2022-08-03T01:43:55.406Z,99.90
2022-08-03T01:46:08.641Z,99.90
2022-08-03T01:48:38.744Z,99.90
2022-08-03T01:51:08.066Z,99.90
2022-08-03T01:53:38.125Z,99.90
2022-08-03T01:56:06.899Z,99.90
2022-08-03T01:58:36.786Z,99.90
2022-08-03T02:01:05.610Z,99.90
2022-08-03T02:03:36.828Z,99.90
2022-08-03T02:07:00.237Z,99.90
2022-08-03T02:08:53.872Z,99.90
2022-08-03T02:11:20.812Z,99.90
2022-08-03T02:13:49.593Z,99.90
2022-08-03T02:16:19.301Z,99.90
2022-08-03T02:18:48.236Z,99.90
2022-08-03T02:21:55.460Z,99.90
2022-08-03T02:24:04.512Z,99.90
2022-08-03T02:26:33.244Z,99.90
2022-08-03T02:29:08.695Z,99.90
2022-08-03T02:31:38.328Z,99.90
2022-08-03T02:34:11.500Z,99.90
2022-08-03T02:36:39.655Z,99.90
2022-08-03T02:39:10.437Z,99.90
2022-08-03T02:42:02.299Z,99.90
2022-08-03T02:44:33.090Z,99.90
2022-08-03T02:47:06.890Z,99.90
2022-08-03T02:49:50.349Z,99.90
2022-08-03T02:52:23.352Z,99.90
2022-08-03T02:54:55.564Z,99.90
2022-08-03T02:57:24.804Z,99.90
2022-08-03T02:59:53.303Z,99.90
2022-08-03T03:02:20.833Z,99.90
2022-08-03T03:05:50.558Z,99.90
2022-08-03T03:07:52.034Z,99.90
2022-08-03T03:10:24.618Z,99.90
2022-08-03T03:12:55.052Z,99.90
2022-08-03T03:15:23.479Z,99.90
2022-08-03T03:17:51.736Z,99.90
2022-08-03T03:20:29.690Z,99.90
2022-08-03T03:23:00.227Z,99.90
2022-08-03T03:25:34.173Z,99.90
2022-08-03T03:28:02.165Z,99.90
2022-08-03T03:30:29.972Z,99.90
2022-08-03T03:32:58.408Z,99.90
2022-08-03T03:35:27.164Z,99.90
2022-08-03T03:37:54.368Z,99.90
2022-08-03T03:40:22.201Z,99.90
2022-08-03T03:42:50.160Z,99.90
2022-08-03T03:45:17.880Z,99.90
2022-08-03T03:47:44.890Z,99.90
2022-08-03T03:50:12.531Z,99.90
2022-08-03T03:52:39.465Z,99.90
2022-08-03T03:55:07.281Z,99.90
2022-08-03T03:57:35.141Z,99.90
2022-08-03T04:00:02.291Z,99.90
2022-08-03T04:02:29.163Z,99.90
2022-08-03T04:05:14.385Z,99.90
2022-08-03T04:08:23.315Z,99.90
2022-08-03T04:11:02.599Z,99.90
2022-08-03T04:13:38.000Z,99.90
2022-08-03T04:16:06.983Z,99.90
2022-08-03T04:18:36.155Z,99.90
2022-08-03T04:21:13.117Z,99.90
2022-08-03T04:23:48.880Z,99.90
2022-08-03T04:26:26.031Z,99.90
2022-08-03T04:28:54.611Z,99.90
2022-08-03T04:31:23.602Z,99.90
2022-08-03T04:33:52.500Z,99.90
2022-08-03T04:36:22.600Z,99.90
2022-08-03T04:39:01.627Z,99.90
2022-08-03T04:41:30.491Z,99.90
2022-08-03T04:44:00.199Z,99.90
2022-08-03T04:46:32.705Z,99.90
2022-08-03T04:49:01.040Z,99.90
2022-08-03T04:51:28.910Z,99.90
2022-08-03T04:53:55.744Z,99.90
2022-08-03T04:56:22.685Z,99.90
2022-08-03T04:58:49.573Z,99.90
2022-08-03T05:01:17.519Z,99.90
2022-08-03T05:03:44.454Z,99.90
2022-08-03T05:06:11.781Z,99.90
2022-08-03T05:08:41.181Z,99.90
2022-08-03T05:11:15.114Z,99.90
2022-08-03T05:13:42.144Z,99.90
2022-08-03T05:16:09.005Z,99.90
2022-08-03T05:18:36.056Z,99.90
2022-08-03T05:21:03.000Z,99.90
2022-08-03T05:23:29.844Z,99.90
2022-08-03T05:25:57.012Z,99.90
2022-08-03T05:28:23.888Z,99.90
2022-08-03T05:30:50.764Z,99.90
2022-08-03T05:33:17.651Z,99.90
2022-08-03T05:35:57.546Z,99.90
2022-08-03T05:38:34.249Z,99.90
2022-08-03T05:41:22.095Z,99.90
2022-08-03T05:43:50.337Z,99.90
2022-08-03T05:46:18.147Z,99.90
2022-08-03T05:48:44.987Z,99.90
2022-08-03T05:51:12.538Z,99.90
2022-08-03T05:53:40.821Z,99.90
2022-08-03T05:56:14.295Z,99.90
2022-08-03T05:58:44.424Z,99.90
2022-08-03T06:01:11.393Z,99.90
2022-08-03T06:03:38.236Z,99.90
2022-08-03T06:06:05.158Z,99.90
2022-08-03T06:08:31.996Z,99.90
2022-08-03T06:10:58.830Z,99.90
2022-08-03T06:13:25.620Z,99.90
2022-08-03T06:15:52.440Z,99.90
2022-08-03T06:18:19.312Z,99.90
2022-08-03T06:20:47.148Z,99.90
2022-08-03T06:23:17.888Z,99.90
2022-08-03T06:25:46.112Z,99.90
2022-08-03T06:31:06.594Z,99.90
2022-08-03T06:34:30.756Z,99.90
2022-08-03T06:36:20.569Z,99.90
2022-08-03T06:38:47.813Z,99.90
2022-08-03T06:41:14.687Z,99.90
2022-08-03T06:44:02.638Z,99.90
2022-08-03T06:46:29.232Z,99.90
2022-08-03T06:48:56.681Z,99.90
2022-08-03T06:52:02.691Z,99.90
2022-08-03T06:54:11.004Z,99.90
2022-08-03T06:56:37.915Z,99.90
2022-08-03T06:59:04.877Z,99.90
2022-08-03T07:01:31.813Z,99.90
2022-08-03T07:03:58.802Z,99.90
2022-08-03T07:06:25.673Z,99.90
2022-08-03T07:08:56.507Z,99.90
2022-08-03T07:11:26.165Z,99.90
2022-08-03T07:13:53.023Z,99.90
2022-08-03T07:16:20.440Z,99.90
2022-08-03T07:18:47.334Z,99.90
2022-08-03T07:21:16.149Z,93.70
2022-08-03T07:23:43.064Z,84.20
2022-08-03T07:26:09.856Z,73.10
2022-08-03T07:28:36.764Z,67.90
2022-08-03T07:31:03.585Z,65.20
2022-08-03T07:33:30.447Z,59.00
2022-08-03T07:35:57.268Z,57.70
2022-08-03T07:38:24.118Z,55.30
2022-08-03T07:40:50.919Z,54.20
2022-08-03T07:43:17.929Z,52.20
2022-08-03T07:45:44.826Z,52.60
2022-08-03T07:48:12.537Z,51.60
2022-08-03T07:50:39.680Z,51.60
2022-08-03T07:53:06.521Z,51.70
2022-08-03T07:55:33.616Z,50.30
2022-08-03T07:58:03.814Z,49.40
2022-08-03T08:00:31.039Z,49.20
2022-08-03T08:02:58.254Z,49.30
2022-08-03T08:05:25.556Z,49.10
2022-08-03T08:07:52.454Z,49.50
2022-08-03T08:10:19.734Z,47.50
2022-08-03T08:12:46.857Z,47.50
2022-08-03T08:15:13.782Z,47.40
2022-08-03T08:17:55.085Z,46.10
2022-08-03T08:20:27.898Z,45.80
2022-08-03T08:23:13.930Z,45.40
2022-08-03T08:25:51.781Z,44.60
2022-08-03T08:28:29.191Z,43.70
2022-08-03T08:31:00.108Z,42.90
2022-08-03T08:33:37.397Z,43.40
2022-08-03T08:36:14.741Z,43.00
2022-08-03T08:38:42.749Z,42.40
2022-08-03T08:41:11.388Z,41.80
2022-08-03T08:43:38.613Z,42.70
2022-08-03T08:46:09.948Z,42.30
2022-08-03T08:48:41.972Z,42.40
2022-08-03T08:51:11.420Z,41.20
2022-08-03T08:53:41.100Z,42.90
2022-08-03T08:56:10.227Z,43.30
2022-08-03T08:58:46.320Z,42.60
2022-08-03T09:01:13.278Z,42.60
2022-08-03T09:03:40.434Z,43.00
2022-08-03T09:06:07.236Z,42.30
2022-08-03T09:08:34.396Z,42.90
2022-08-03T09:11:02.132Z,43.30
2022-08-03T09:13:30.405Z,43.50
2022-08-03T09:16:18.684Z,42.60
2022-08-03T09:18:48.582Z,43.40
2022-08-03T09:21:34.465Z,42.90
2022-08-03T09:24:05.618Z,44.00
2022-08-03T09:26:38.004Z,43.10
2022-08-03T09:29:14.321Z,43.70
2022-08-03T09:31:45.358Z,43.10
2022-08-03T09:34:14.755Z,43.20
2022-08-03T09:36:46.395Z,43.00
2022-08-03T09:39:16.398Z,43.00
2022-08-03T09:41:45.613Z,42.00
2022-08-03T09:44:25.483Z,43.10
2022-08-03T09:46:56.935Z,42.00
2022-08-03T09:49:25.210Z,41.90
2022-08-03T09:52:32.735Z,43.20
2022-08-03T09:54:40.864Z,43.40
2022-08-03T09:57:07.998Z,43.20
2022-08-03T09:59:35.608Z,44.30
2022-08-03T10:02:19.759Z,45.50
2022-08-03T10:04:52.624Z,45.50
2022-08-03T10:07:22.059Z,46.10
2022-08-03T10:09:55.150Z,48.20
2022-08-03T10:12:22.345Z,47.30
2022-08-03T10:14:49.265Z,48.40
2022-08-03T10:17:16.421Z,50.70
2022-08-03T10:19:43.536Z,51.60
2022-08-03T10:22:14.589Z,52.60
2022-08-03T10:24:59.050Z,54.30
2022-08-03T10:27:31.645Z,54.80
2022-08-03T10:30:04.163Z,54.40
2022-08-03T10:33:03.153Z,55.60
2022-08-03T10:35:30.298Z,55.50
2022-08-03T10:38:03.143Z,55.80
2022-08-03T10:40:49.527Z,56.00
2022-08-03T10:43:37.107Z,56.80
2022-08-03T10:46:07.237Z,56.90
2022-08-03T10:48:35.677Z,58.60
2022-08-03T10:51:03.425Z,57.90
2022-08-03T10:53:44.036Z,59.10
2022-08-03T10:56:52.206Z,60.30
2022-08-03T10:59:28.024Z,60.00
2022-08-03T11:01:58.678Z,59.70
2022-08-03T11:04:29.598Z,60.80
2022-08-03T11:07:15.931Z,60.40
2022-08-03T11:09:48.568Z,61.20
2022-08-03T11:12:30.305Z,59.90
2022-08-03T11:15:07.327Z,60.10
2022-08-03T11:17:46.364Z,60.20
2022-08-03T11:21:10.105Z,61.20
2022-08-03T11:24:03.151Z,59.50
2022-08-03T11:26:29.635Z,61.10
2022-08-03T11:29:31.488Z,60.70
2022-08-03T11:31:58.530Z,60.50
2022-08-03T11:34:25.739Z,59.50
2022-08-03T11:37:22.545Z,59.90
2022-08-03T11:39:52.944Z,58.90
2022-08-03T11:42:26.858Z,59.30
2022-08-03T11:44:58.312Z,59.80
2022-08-03T11:47:29.902Z,59.70
2022-08-03T11:50:00.068Z,60.00
2022-08-03T11:52:29.004Z,59.80
2022-08-03T11:54:56.620Z,59.60
2022-08-03T11:59:00.776Z,59.50
2022-08-03T12:00:32.937Z,60.30
2022-08-03T12:03:01.502Z,61.00
2022-08-03T12:05:51.909Z,60.00
2022-08-03T12:08:31.317Z,60.60
2022-08-03T12:11:00.063Z,61.30
2022-08-03T12:14:37.373Z,60.90
2022-08-03T12:16:24.215Z,59.30
2022-08-03T12:18:58.610Z,60.40
2022-08-03T12:21:25.528Z,60.60
2022-08-03T12:24:00.868Z,61.00
2022-08-03T12:26:29.303Z,60.30
2022-08-03T12:28:56.418Z,60.30
2022-08-03T12:31:23.303Z,60.70
2022-08-03T12:34:03.051Z,61.10
2022-08-03T12:36:34.521Z,60.20
2022-08-03T12:39:04.460Z,60.90
2022-08-03T12:41:36.745Z,60.30
2022-08-03T12:44:05.522Z,59.90
2022-08-03T12:46:37.472Z,60.00
2022-08-03T12:49:15.478Z,60.60
2022-08-03T12:51:42.387Z,59.40
2022-08-03T12:54:15.757Z,60.90
2022-08-03T12:57:05.358Z,59.80
2022-08-03T12:59:53.102Z,60.30
2022-08-03T13:02:25.711Z,61.60
2022-08-03T13:04:54.937Z,61.30
2022-08-03T13:07:22.767Z,61.70
2022-08-03T13:09:55.209Z,60.80
2022-08-03T13:12:28.973Z,61.50
2022-08-03T13:15:00.205Z,61.90
2022-08-03T13:17:27.882Z,61.70
2022-08-03T13:19:54.811Z,61.00
2022-08-03T13:22:23.749Z,62.30
2022-08-03T13:24:52.922Z,61.30
2022-08-03T13:28:01.011Z,60.90
2022-08-03T13:30:08.685Z,62.40
2022-08-03T13:32:36.013Z,62.70
2022-08-03T13:35:03.804Z,62.00
2022-08-03T13:37:32.282Z,61.40
2022-08-03T13:40:03.025Z,61.80
2022-08-03T13:42:33.047Z,61.00
2022-08-03T13:45:00.614Z,60.70
2022-08-03T13:47:28.310Z,61.40
2022-08-03T13:50:01.745Z,60.50
2022-08-03T13:52:34.238Z,59.50
2022-08-03T13:55:03.860Z,58.40
2022-08-03T13:58:05.335Z,58.90
2022-08-03T14:00:28.051Z,58.00
2022-08-03T14:03:03.883Z,58.00
2022-08-03T14:05:32.061Z,59.00
2022-08-03T14:08:03.992Z,58.70
2022-08-03T14:10:33.117Z,58.20
2022-08-03T14:13:00.490Z,58.20
2022-08-03T14:15:28.612Z,58.50
2022-08-03T14:17:56.498Z,57.70
2022-08-03T14:20:47.709Z,57.00
2022-08-03T14:23:14.492Z,57.10
2022-08-03T14:25:44.229Z,55.80
2022-08-03T14:28:21.313Z,54.30
2022-08-03T14:30:51.201Z,54.40
2022-08-03T14:33:18.365Z,54.30
2022-08-03T14:35:45.195Z,56.00
2022-08-03T14:38:12.132Z,55.00
2022-08-03T14:40:38.939Z,52.50
2022-08-03T14:43:05.840Z,53.00
2022-08-03T14:45:32.655Z,52.20
2022-08-03T14:50:34.540Z,52.10
2022-08-03T14:50:50.992Z,52.30
2022-08-03T14:53:19.815Z,52.30
2022-08-03T14:55:49.967Z,52.20
2022-08-03T14:58:22.911Z,51.50
2022-08-03T15:00:52.083Z,53.00
2022-08-03T15:03:23.223Z,53.30
2022-08-03T15:05:55.393Z,52.00
2022-08-03T15:08:23.999Z,51.00
2022-08-03T15:10:51.200Z,50.10
2022-08-03T15:13:19.688Z,50.10
2022-08-03T15:15:47.954Z,52.00
2022-08-03T15:18:14.914Z,51.50
2022-08-03T15:20:46.185Z,51.50
2022-08-03T15:23:14.984Z,51.40
2022-08-03T15:26:27.839Z,50.70
2022-08-03T15:28:29.998Z,50.30
2022-08-03T15:31:03.439Z,50.60
2022-08-03T15:33:31.766Z,50.80
2022-08-03T15:36:00.000Z,49.50
2022-08-03T15:38:27.091Z,48.60
2022-08-03T15:40:57.054Z,48.60
2022-08-03T15:43:24.053Z,49.20
2022-08-03T15:46:19.477Z,51.10
2022-08-03T15:48:38.884Z,51.30
2022-08-03T15:51:06.447Z,51.10
2022-08-03T15:53:33.674Z,49.30
2022-08-03T15:56:04.247Z,49.50
2022-08-03T15:59:03.690Z,48.60
2022-08-03T16:01:21.757Z,48.60
2022-08-03T16:03:48.698Z,50.80
2022-08-03T16:06:15.901Z,49.20
2022-08-03T16:08:42.792Z,50.20
2022-08-03T16:11:12.353Z,51.00
2022-08-03T16:14:13.154Z,49.30
2022-08-03T16:16:26.068Z,49.50
2022-08-03T16:18:52.950Z,49.90
2022-08-03T16:21:21.700Z,51.20
2022-08-03T16:23:49.004Z,50.80
2022-08-03T16:26:15.860Z,51.20
2022-08-03T16:28:42.675Z,53.10
2022-08-03T16:31:09.630Z,52.20
2022-08-03T16:33:36.584Z,53.60
2022-08-03T16:36:03.789Z,54.10
2022-08-03T16:38:31.275Z,54.30
2022-08-03T16:40:58.676Z,54.30
2022-08-03T16:43:25.837Z,55.80
2022-08-03T16:45:52.736Z,56.00
2022-08-03T16:48:20.037Z,55.80
2022-08-03T16:50:47.419Z,56.30
2022-08-03T16:53:16.328Z,55.70
2022-08-03T16:55:52.054Z,55.50
2022-08-03T16:58:41.890Z,56.20
2022-08-03T17:01:22.350Z,56.00
2022-08-03T17:04:03.628Z,56.50
2022-08-03T17:06:35.497Z,56.50
2022-08-03T17:09:14.353Z,56.30
2022-08-03T17:11:44.302Z,57.30
2022-08-03T17:14:21.769Z,57.20
2022-08-03T17:16:52.181Z,58.20
2022-08-03T17:19:23.265Z,58.30
2022-08-03T17:22:01.125Z,58.30
2022-08-03T17:24:31.489Z,58.00
2022-08-03T17:27:02.556Z,58.30
2022-08-03T17:29:31.661Z,59.40
2022-08-03T17:31:59.698Z,59.00
2022-08-03T17:34:26.899Z,59.90
2022-08-03T17:37:27.351Z,58.20
2022-08-03T17:39:58.336Z,58.90
2022-08-03T17:42:30.441Z,59.10
2022-08-03T17:45:07.290Z,58.40
2022-08-03T17:47:41.178Z,59.70
2022-08-03T17:50:24.676Z,59.60
2022-08-03T17:53:24.054Z,60.20
2022-08-03T17:56:04.771Z,59.70
2022-08-03T17:58:52.588Z,59.90
2022-08-03T18:01:57.501Z,59.70
2022-08-03T18:04:36.217Z,60.50
2022-08-03T18:07:11.377Z,61.00
2022-08-03T18:10:05.906Z,64.30
2022-08-03T18:12:40.126Z,62.40
2022-08-03T18:15:21.355Z,62.50
2022-08-03T18:17:58.340Z,64.60
2022-08-03T18:20:32.913Z,65.00
2022-08-03T18:23:06.561Z,70.30
2022-08-03T18:25:45.468Z,75.10
2022-08-03T18:28:19.681Z,77.80
2022-08-03T18:30:54.553Z,79.30
2022-08-03T18:34:20.035Z,81.70
2022-08-03T18:36:17.959Z,82.70
2022-08-03T18:38:48.119Z,83.90
2022-08-03T18:41:21.943Z,84.30
2022-08-03T18:44:06.428Z,86.30
2022-08-03T18:46:48.228Z,85.80
2022-08-03T18:49:47.248Z,84.70
2022-08-03T18:52:30.888Z,86.30
2022-08-03T18:55:33.728Z,88.10
2022-08-03T18:58:20.308Z,88.80
2022-08-03T19:01:58.186Z,90.40
2022-08-03T19:04:19.892Z,91.20
2022-08-03T19:06:58.835Z,93.40
2022-08-03T19:09:37.261Z,94.10
2022-08-03T19:12:26.538Z,95.10
2022-08-03T19:15:17.709Z,97.30
2022-08-03T19:18:08.889Z,98.40
2022-08-03T19:20:38.539Z,99.20
2022-08-03T19:23:06.796Z,99.60
2022-08-03T19:25:39.515Z,99.10
2022-08-03T19:28:08.801Z,99.90
2022-08-03T19:30:40.316Z,99.90
2022-08-03T19:33:12.908Z,99.90
2022-08-03T19:35:52.159Z,99.90
2022-08-03T19:38:29.048Z,99.90
2022-08-03T19:40:59.792Z,99.90
2022-08-03T19:43:57.894Z,99.90
2022-08-03T19:46:31.685Z,99.90
2022-08-03T19:49:15.990Z,99.90
2022-08-03T19:51:58.987Z,99.90
2022-08-03T19:54:45.872Z,99.90
2022-08-03T19:57:24.789Z,99.90
2022-08-03T19:59:53.970Z,99.90
2022-08-03T20:02:27.176Z,99.90
2022-08-03T20:04:57.003Z,99.90
2022-08-03T20:07:25.187Z,99.90
2022-08-03T20:09:54.404Z,99.90
2022-08-03T20:12:28.661Z,99.90
2022-08-03T20:15:18.386Z,99.90
2022-08-03T20:17:54.831Z,99.90
2022-08-03T20:20:32.546Z,99.90
2022-08-03T20:23:00.865Z,99.90
2022-08-03T20:25:38.247Z,99.90
2022-08-03T20:28:14.618Z,99.90
2022-08-03T20:30:43.914Z,99.90
2022-08-03T20:33:11.355Z,99.90
2022-08-03T20:35:38.239Z,99.90
2022-08-03T20:38:09.290Z,99.90
2022-08-03T20:40:36.609Z,99.90
2022-08-03T20:43:05.300Z,99.90
2022-08-03T20:46:01.138Z,99.90
2022-08-03T20:48:22.116Z,99.90
2022-08-03T20:50:49.619Z,99.90
2022-08-03T20:53:57.320Z,99.90
2022-08-03T20:56:04.972Z,99.90
2022-08-03T20:58:33.181Z,99.90
2022-08-03T21:01:01.157Z,99.90
2022-08-03T21:03:41.241Z,99.90
2022-08-03T21:06:19.255Z,99.90
2022-08-03T21:09:03.880Z,99.90
2022-08-03T21:11:41.753Z,99.90
2022-08-03T21:14:15.776Z,99.90
2022-08-03T21:16:46.153Z,99.90
2022-08-03T21:19:15.465Z,99.90
2022-08-03T21:21:44.576Z,99.90
2022-08-03T21:24:13.940Z,99.90
2022-08-03T21:26:41.726Z,99.90
2022-08-03T21:29:10.332Z,99.90
2022-08-03T21:31:40.038Z,99.90
2022-08-03T21:34:07.260Z,99.90
2022-08-03T21:36:37.614Z,99.90
2022-08-03T21:39:07.958Z,99.90
2022-08-03T21:41:36.657Z,99.90
2022-08-03T21:44:05.138Z,99.90
2022-08-03T21:46:36.236Z,99.90
2022-08-03T21:50:07.971Z,99.90
2022-08-03T21:51:54.453Z,99.90
2022-08-03T21:54:23.099Z,99.90
2022-08-03T21:56:51.485Z,99.90
2022-08-03T21:59:19.894Z,99.90
2022-08-03T22:01:55.395Z,99.90
2022-08-03T22:04:55.176Z,99.90
2022-08-03T22:07:13.675Z,99.90
2022-08-03T22:09:51.413Z,99.90
2022-08-03T22:12:25.468Z,99.90
2022-08-03T22:15:01.219Z,99.90
2022-08-03T22:17:54.129Z,99.90
2022-08-03T22:20:21.547Z,99.90
2022-08-03T22:22:55.398Z,99.90
2022-08-03T22:25:30.819Z,99.90
2022-08-03T22:28:02.466Z,99.90
2022-08-03T22:30:29.555Z,99.90
2022-08-03T22:32:57.986Z,99.90
2022-08-03T22:35:27.333Z,99.90
2022-08-03T22:37:58.676Z,99.90
2022-08-03T22:40:27.610Z,99.90
2022-08-03T22:42:54.787Z,99.90
2022-08-03T22:46:06.014Z,99.90
2022-08-03T22:48:08.900Z,99.90
2022-08-03T22:50:35.918Z,99.90
2022-08-03T22:53:03.346Z,99.90
2022-08-03T22:55:30.984Z,99.90
2022-08-03T22:57:57.890Z,99.90
2022-08-03T23:00:25.218Z,99.90
2022-08-03T23:02:55.245Z,99.90
2022-08-03T23:06:02.187Z,99.90
2022-08-03T23:08:20.892Z,99.90
2022-08-03T23:10:49.808Z,99.90
2022-08-03T23:13:17.603Z,99.90
2022-08-03T23:15:51.017Z,99.90
2022-08-03T23:18:20.790Z,99.90
2022-08-03T23:20:52.144Z,99.90
2022-08-03T23:23:20.718Z,99.90
2022-08-03T23:25:50.290Z,99.90
2022-08-03T23:28:17.622Z,99.90
2022-08-03T23:30:45.552Z,99.90
2022-08-03T23:33:16.358Z,99.90
2022-08-03T23:36:28.329Z,99.90
2022-08-03T23:38:48.376Z,99.90
2022-08-03T23:41:16.560Z,99.90
2022-08-03T23:43:51.818Z,99.90
2022-08-03T23:46:21.958Z,99.90
2022-08-03T23:48:49.491Z,99.90
2022-08-03T23:51:44.915Z,99.90
2022-08-03T23:54:31.155Z,99.90
2022-08-03T23:57:29.608Z,99.90
